EWG82N EDDG-EDGG
Flight info
| Callsign | EWG82N |
|---|---|
| Flight time | N/A |
| Altitude | 11000 |
| Route | OSNAD1W/25 OSNAD |
| Aircraft | A320/M-SDE3FGHIRWY/LB1 |
Departure
| Time | 2026-04-24 19:53 |
|---|---|
| Airport | Münster Osnabrück Airport (EDDG) |
Arrival
| Time | N/A |
|---|---|
| Airport | EDGG |
| Time | Latitude | Longitude | Altitude | Speed | Heading |
|---|---|---|---|---|---|
| 2026-04-24 19:40 | 52.13198 | 7.69537 | 140 ft | 0 kts | 197° |
| 2026-04-24 19:48 | 52.13198 | 7.69536 | 140 ft | 0 kts | 197° |
| 2026-04-24 19:48 | 52.13203 | 7.69523 | 168 ft | 0 kts | 321° |
| 2026-04-24 19:49 | 52.13261 | 7.69417 | 168 ft | 9 kts | 245° |
| 2026-04-24 19:49 | 52.13329 | 7.69280 | 168 ft | 14 kts | 342° |
| 2026-04-24 19:50 | 52.13505 | 7.69506 | 168 ft | 10 kts | 71° |
| 2026-04-24 19:50 | 52.13529 | 7.69619 | 168 ft | 11 kts | 71° |
| 2026-04-24 19:51 | 52.13583 | 7.69872 | 168 ft | 13 kts | 71° |
| 2026-04-24 19:51 | 52.13620 | 7.69995 | 168 ft | 12 kts | 44° |
| 2026-04-24 19:52 | 52.13769 | 7.69958 | 168 ft | 11 kts | 289° |
| 2026-04-24 19:52 | 52.13760 | 7.69877 | 168 ft | 2 kts | 251° |
| 2026-04-24 19:52 | 52.13756 | 7.69859 | 168 ft | 3 kts | 251° |
| 2026-04-24 19:52 | 52.13682 | 7.69505 | 169 ft | 74 kts | 250° |
| 2026-04-24 19:53 | 52.13435 | 7.68329 | 172 ft | 142 kts | 251° |
| 2026-04-24 19:53 | 52.13094 | 7.66700 | 642 ft | 157 kts | 255° |
| 2026-04-24 19:53 | 52.12364 | 7.63250 | 2011 ft | 176 kts | 254° |
| 2026-04-24 19:54 | 52.11941 | 7.61242 | 2450 ft | 199 kts | 254° |
| 2026-04-24 19:54 | 52.11466 | 7.58988 | 2916 ft | 220 kts | 254° |
| 2026-04-24 19:54 | 52.10911 | 7.56564 | 3617 ft | 235 kts | 245° |
| 2026-04-24 19:54 | 52.09827 | 7.54529 | 4521 ft | 247 kts | 217° |
| 2026-04-24 19:55 | 52.08799 | 7.53721 | 4909 ft | 250 kts | 195° |
| 2026-04-24 19:55 | 52.06500 | 7.54013 | 5720 ft | 254 kts | 154° |
| 2026-04-24 19:55 | 52.05049 | 7.55573 | 6324 ft | 254 kts | 134° |
| 2026-04-24 19:55 | 52.04010 | 7.57913 | 6927 ft | 253 kts | 110° |
| 2026-04-24 19:56 | 52.03632 | 7.60695 | 7511 ft | 264 kts | 86° |
| 2026-04-24 19:56 | 52.04033 | 7.63667 | 8052 ft | 279 kts | 66° |
| 2026-04-24 19:56 | 52.04747 | 7.66634 | 8187 ft | 283 kts | 65° |
| 2026-04-24 19:56 | 52.05491 | 7.69592 | 8218 ft | 283 kts | 65° |
| 2026-04-24 19:57 | 52.06243 | 7.72546 | 8219 ft | 283 kts | 65° |
| 2026-04-24 19:57 | 52.06996 | 7.75508 | 8220 ft | 283 kts | 65° |
| 2026-04-24 19:57 | 52.07740 | 7.78468 | 8220 ft | 283 kts | 65° |
| 2026-04-24 19:57 | 52.08480 | 7.81438 | 8220 ft | 283 kts | 65° |
| 2026-04-24 19:58 | 52.09216 | 7.84413 | 8218 ft | 284 kts | 65° |
| 2026-04-24 19:58 | 52.09951 | 7.87389 | 8217 ft | 284 kts | 65° |
| 2026-04-24 19:58 | 52.10499 | 7.90468 | 8214 ft | 286 kts | 83° |
| 2026-04-24 19:58 | 52.10424 | 7.93715 | 8215 ft | 289 kts | 93° |
| 2026-04-24 19:59 | 52.10221 | 7.96967 | 8211 ft | 289 kts | 94° |
| 2026-04-24 19:59 | 52.10006 | 8.00211 | 8209 ft | 289 kts | 94° |
| 2026-04-24 19:59 | 52.09791 | 8.03446 | 7971 ft | 286 kts | 94° |
| 2026-04-24 19:59 | 52.09668 | 8.06656 | 7538 ft | 282 kts | 81° |
| 2026-04-24 20:00 | 52.10273 | 8.09594 | 7129 ft | 272 kts | 54° |
| 2026-04-24 20:00 | 52.11612 | 8.11666 | 6716 ft | 264 kts | 26° |
| 2026-04-24 20:00 | 52.13316 | 8.12711 | 6283 ft | 261 kts | 15° |
| 2026-04-24 20:00 | 52.15052 | 8.13526 | 5843 ft | 259 kts | 14° |
| 2026-04-24 20:01 | 52.16805 | 8.14000 | 5446 ft | 254 kts | 355° |
| 2026-04-24 20:01 | 52.18449 | 8.13115 | 5065 ft | 250 kts | 326° |
| 2026-04-24 20:01 | 52.19535 | 8.11019 | 4985 ft | 238 kts | 299° |
| 2026-04-24 20:01 | 52.20164 | 8.08596 | 4994 ft | 228 kts | 294° |
| 2026-04-24 20:02 | 52.20493 | 8.06969 | 4994 ft | 230 kts | 283° |
| 2026-04-24 20:02 | 52.20398 | 8.03506 | 4675 ft | 233 kts | 265° |
| 2026-04-24 20:02 | 52.20128 | 8.00889 | 4233 ft | 237 kts | 262° |
| 2026-04-24 20:02 | 52.19700 | 7.98282 | 3867 ft | 238 kts | 256° |
| 2026-04-24 20:03 | 52.19179 | 7.95731 | 3545 ft | 235 kts | 255° |
| 2026-04-24 20:03 | 52.18663 | 7.93284 | 3232 ft | 222 kts | 254° |
| 2026-04-24 20:03 | 52.18175 | 7.90951 | 2945 ft | 216 kts | 255° |
| 2026-04-24 20:03 | 52.17693 | 7.88634 | 2647 ft | 215 kts | 255° |
| 2026-04-24 20:04 | 52.17213 | 7.86341 | 2380 ft | 211 kts | 254° |
| 2026-04-24 20:04 | 52.16751 | 7.84135 | 2070 ft | 200 kts | 254° |
| 2026-04-24 20:04 | 52.16302 | 7.81986 | 1797 ft | 201 kts | 253° |
| 2026-04-24 20:04 | 52.15849 | 7.79827 | 1508 ft | 201 kts | 254° |
| 2026-04-24 20:05 | 52.15402 | 7.77695 | 1236 ft | 191 kts | 253° |
| 2026-04-24 20:05 | 52.14997 | 7.75776 | 977 ft | 167 kts | 253° |
| 2026-04-24 20:05 | 52.14637 | 7.74069 | 768 ft | 152 kts | 254° |
| 2026-04-24 20:05 | 52.14313 | 7.72529 | 577 ft | 138 kts | 253° |
| 2026-04-24 20:06 | 52.14012 | 7.71079 | 381 ft | 132 kts | 255° |
| 2026-04-24 20:06 | 52.13724 | 7.69717 | 209 ft | 123 kts | 255° |
| 2026-04-24 20:06 | 52.13478 | 7.68539 | 167 ft | 95 kts | 250° |
| 2026-04-24 20:06 | 52.13294 | 7.67672 | 166 ft | 68 kts | 251° |
| 2026-04-24 20:07 | 52.13220 | 7.67322 | 165 ft | 36 kts | 251° |
| 2026-04-24 20:07 | 52.13161 | 7.67077 | 166 ft | 7 kts | 234° |
| 2026-04-24 20:07 | 52.13121 | 7.67046 | 167 ft | 6 kts | 180° |
| 2026-04-24 20:07 | 52.13079 | 7.67066 | 167 ft | 7 kts | 150° |
| 2026-04-24 20:08 | 52.13038 | 7.67140 | 168 ft | 10 kts | 117° |
| 2026-04-24 20:08 | 52.13030 | 7.67252 | 168 ft | 11 kts | 85° |
| 2026-04-24 20:08 | 52.13052 | 7.67368 | 168 ft | 11 kts | 71° |
| 2026-04-24 20:08 | 52.13080 | 7.67496 | 168 ft | 13 kts | 70° |
| 2026-04-24 20:09 | 52.13112 | 7.67646 | 168 ft | 14 kts | 71° |
| 2026-04-24 20:09 | 52.13144 | 7.67802 | 168 ft | 16 kts | 71° |
| 2026-04-24 20:09 | 52.13175 | 7.67943 | 168 ft | 12 kts | 71° |
| 2026-04-24 20:09 | 52.13205 | 7.68088 | 168 ft | 15 kts | 71° |